sensor_id;sensor_type;location;lat;lon;timestamp;temperature;humidity
38458;DHT22;24239;48.058;10.486;2023-08-08T00:00:06;11.10;99.90
38458;DHT22;24239;48.058;10.486;2023-08-08T00:02:32;11.10;99.90
38458;DHT22;24239;48.058;10.486;2023-08-08T00:04:58;11.10;99.90
38458;DHT22;24239;48.058;10.486;2023-08-08T00:07:24;11.00;99.90
38458;DHT22;24239;48.058;10.486;2023-08-08T00:09:49;11.00;99.90
38458;DHT22;24239;48.058;10.486;2023-08-08T00:12:15;11.00;99.90
38458;DHT22;24239;48.058;10.486;2023-08-08T00:14:41;11.00;99.90
38458;DHT22;24239;48.058;10.486;2023-08-08T00:17:07;10.90;99.90
38458;DHT22;24239;48.058;10.486;2023-08-08T00:19:32;10.90;99.90
38458;DHT22;24239;48.058;10.486;2023-08-08T00:21:58;10.90;99.90
38458;DHT22;24239;48.058;10.486;2023-08-08T00:24:24;10.90;99.90
38458;DHT22;24239;48.058;10.486;2023-08-08T00:26:50;10.90;99.90
38458;DHT22;24239;48.058;10.486;2023-08-08T00:29:15;10.90;99.90
38458;DHT22;24239;48.058;10.486;2023-08-08T00:31:41;10.90;99.90
38458;DHT22;24239;48.058;10.486;2023-08-08T00:34:07;10.90;99.90
38458;DHT22;24239;48.058;10.486;2023-08-08T00:36:33;10.90;99.90
38458;DHT22;24239;48.058;10.486;2023-08-08T00:38:59;10.90;99.90
38458;DHT22;24239;48.058;10.486;2023-08-08T00:41:26;10.90;99.90
38458;DHT22;24239;48.058;10.486;2023-08-08T00:43:51;10.80;99.90
38458;DHT22;24239;48.058;10.486;2023-08-08T00:46:21;10.90;99.90
38458;DHT22;24239;48.058;10.486;2023-08-08T00:48:47;10.80;99.90
38458;DHT22;24239;48.058;10.486;2023-08-08T00:51:13;10.90;99.90
38458;DHT22;24239;48.058;10.486;2023-08-08T00:53:39;10.80;99.90
38458;DHT22;24239;48.058;10.486;2023-08-08T00:56:05;10.80;99.90
38458;DHT22;24239;48.058;10.486;2023-08-08T00:58:31;10.70;99.90
38458;DHT22;24239;48.058;10.486;2023-08-08T01:00:57;10.70;99.90
38458;DHT22;24239;48.058;10.486;2023-08-08T01:03:26;10.70;99.90
38458;DHT22;24239;48.058;10.486;2023-08-08T01:06:53;10.80;99.90
38458;DHT22;24239;48.058;10.486;2023-08-08T01:08:57;10.80;99.90
38458;DHT22;24239;48.058;10.486;2023-08-08T01:11:25;10.80;99.90
38458;DHT22;24239;48.058;10.486;2023-08-08T01:13:52;10.70;99.90
38458;DHT22;24239;48.058;10.486;2023-08-08T01:16:19;10.70;99.90
38458;DHT22;24239;48.058;10.486;2023-08-08T01:18:47;10.60;99.90
38458;DHT22;24239;48.058;10.486;2023-08-08T01:21:16;10.60;99.90
38458;DHT22;24239;48.058;10.486;2023-08-08T01:23:46;10.60;99.90
38458;DHT22;24239;48.058;10.486;2023-08-08T01:26:12;10.60;99.90
38458;DHT22;24239;48.058;10.486;2023-08-08T01:28:39;10.50;99.90
38458;DHT22;24239;48.058;10.486;2023-08-08T01:31:05;10.50;99.90
38458;DHT22;24239;48.058;10.486;2023-08-08T01:33:31;10.40;99.90
38458;DHT22;24239;48.058;10.486;2023-08-08T01:36:02;10.40;99.90
38458;DHT22;24239;48.058;10.486;2023-08-08T01:38:36;10.50;99.90
38458;DHT22;24239;48.058;10.486;2023-08-08T01:41:04;10.40;99.90
38458;DHT22;24239;48.058;10.486;2023-08-08T01:43:30;10.40;99.90
38458;DHT22;24239;48.058;10.486;2023-08-08T01:45:57;10.40;99.90
38458;DHT22;24239;48.058;10.486;2023-08-08T01:48:23;10.40;99.90
38458;DHT22;24239;48.058;10.486;2023-08-08T01:50:49;10.40;99.90
38458;DHT22;24239;48.058;10.486;2023-08-08T01:53:15;10.50;99.90
38458;DHT22;24239;48.058;10.486;2023-08-08T01:55:40;10.50;99.90
38458;DHT22;24239;48.058;10.486;2023-08-08T01:58:06;10.50;99.90
38458;DHT22;24239;48.058;10.486;2023-08-08T02:00:32;10.50;99.90
38458;DHT22;24239;48.058;10.486;2023-08-08T02:02:58;10.60;99.90
38458;DHT22;24239;48.058;10.486;2023-08-08T02:05:24;10.70;99.90
38458;DHT22;24239;48.058;10.486;2023-08-08T02:07:49;10.70;99.90
38458;DHT22;24239;48.058;10.486;2023-08-08T02:10:15;10.70;99.90
38458;DHT22;24239;48.058;10.486;2023-08-08T02:12:41;10.70;99.90
38458;DHT22;24239;48.058;10.486;2023-08-08T02:15:07;10.80;99.90
38458;DHT22;24239;48.058;10.486;2023-08-08T02:17:33;10.80;99.90
38458;DHT22;24239;48.058;10.486;2023-08-08T02:19:58;10.80;99.90
38458;DHT22;24239;48.058;10.486;2023-08-08T02:22:25;10.90;99.90
38458;DHT22;24239;48.058;10.486;2023-08-08T02:24:50;10.90;99.90
38458;DHT22;24239;48.058;10.486;2023-08-08T02:27:16;11.00;99.90
38458;DHT22;24239;48.058;10.486;2023-08-08T02:29:42;11.00;99.90
38458;DHT22;24239;48.058;10.486;2023-08-08T02:32:08;11.10;99.90
38458;DHT22;24239;48.058;10.486;2023-08-08T02:34:33;11.10;99.90
38458;DHT22;24239;48.058;10.486;2023-08-08T02:36:59;11.20;99.90
38458;DHT22;24239;48.058;10.486;2023-08-08T02:39:25;11.20;99.90
38458;DHT22;24239;48.058;10.486;2023-08-08T02:41:51;11.20;99.90
38458;DHT22;24239;48.058;10.486;2023-08-08T02:44:17;11.20;99.90
38458;DHT22;24239;48.058;10.486;2023-08-08T02:46:45;11.20;99.90
38458;DHT22;24239;48.058;10.486;2023-08-08T02:49:11;11.20;99.90
38458;DHT22;24239;48.058;10.486;2023-08-08T02:51:36;11.30;99.90
38458;DHT22;24239;48.058;10.486;2023-08-08T02:54:02;11.30;99.90
38458;DHT22;24239;48.058;10.486;2023-08-08T02:56:28;11.30;99.90
38458;DHT22;24239;48.058;10.486;2023-08-08T02:58:54;11.30;99.90
38458;DHT22;24239;48.058;10.486;2023-08-08T03:01:20;11.30;99.90
38458;DHT22;24239;48.058;10.486;2023-08-08T03:03:47;11.40;99.90
38458;DHT22;24239;48.058;10.486;2023-08-08T03:06:13;11.40;99.90
38458;DHT22;24239;48.058;10.486;2023-08-08T03:08:39;11.40;99.90
38458;DHT22;24239;48.058;10.486;2023-08-08T03:11:05;11.40;99.90
38458;DHT22;24239;48.058;10.486;2023-08-08T03:13:31;11.50;99.90
38458;DHT22;24239;48.058;10.486;2023-08-08T03:15:56;11.50;99.90
38458;DHT22;24239;48.058;10.486;2023-08-08T03:18:22;11.50;99.90
38458;DHT22;24239;48.058;10.486;2023-08-08T03:20:48;11.50;99.90
38458;DHT22;24239;48.058;10.486;2023-08-08T03:23:17;11.70;99.90
38458;DHT22;24239;48.058;10.486;2023-08-08T03:25:43;11.50;99.90
38458;DHT22;24239;48.058;10.486;2023-08-08T03:28:09;11.50;99.90
38458;DHT22;24239;48.058;10.486;2023-08-08T03:30:38;11.50;99.90
38458;DHT22;24239;48.058;10.486;2023-08-08T03:33:05;11.50;99.90
38458;DHT22;24239;48.058;10.486;2023-08-08T03:35:30;11.50;99.90
38458;DHT22;24239;48.058;10.486;2023-08-08T03:37:56;11.50;99.90
38458;DHT22;24239;48.058;10.486;2023-08-08T03:40:22;11.40;99.90
38458;DHT22;24239;48.058;10.486;2023-08-08T03:42:48;11.40;99.90
38458;DHT22;24239;48.058;10.486;2023-08-08T03:45:14;11.50;99.90
38458;DHT22;24239;48.058;10.486;2023-08-08T03:47:39;11.50;99.90
38458;DHT22;24239;48.058;10.486;2023-08-08T03:50:06;11.50;99.90
38458;DHT22;24239;48.058;10.486;2023-08-08T03:52:32;11.50;99.90
38458;DHT22;24239;48.058;10.486;2023-08-08T03:55:01;11.50;99.90
38458;DHT22;24239;48.058;10.486;2023-08-08T03:57:27;11.50;99.90
38458;DHT22;24239;48.058;10.486;2023-08-08T03:59:53;11.50;99.90
38458;DHT22;24239;48.058;10.486;2023-08-08T04:02:18;11.50;99.90
38458;DHT22;24239;48.058;10.486;2023-08-08T04:04:44;11.50;99.90
38458;DHT22;24239;48.058;10.486;2023-08-08T04:07:10;11.50;99.90
38458;DHT22;24239;48.058;10.486;2023-08-08T04:09:36;11.50;99.90
38458;DHT22;24239;48.058;10.486;2023-08-08T04:12:02;11.50;99.90
38458;DHT22;24239;48.058;10.486;2023-08-08T04:14:27;11.50;99.90
38458;DHT22;24239;48.058;10.486;2023-08-08T04:16:53;11.50;99.90
38458;DHT22;24239;48.058;10.486;2023-08-08T04:19:19;11.50;99.90
38458;DHT22;24239;48.058;10.486;2023-08-08T04:21:45;11.50;99.90
38458;DHT22;24239;48.058;10.486;2023-08-08T04:24:11;11.60;99.90
38458;DHT22;24239;48.058;10.486;2023-08-08T04:26:38;11.50;99.90
38458;DHT22;24239;48.058;10.486;2023-08-08T04:29:05;11.50;99.90
38458;DHT22;24239;48.058;10.486;2023-08-08T04:31:30;11.60;99.90
38458;DHT22;24239;48.058;10.486;2023-08-08T04:34:00;11.50;99.90
38458;DHT22;24239;48.058;10.486;2023-08-08T04:36:29;11.50;99.90
38458;DHT22;24239;48.058;10.486;2023-08-08T04:38:55;11.50;99.90
38458;DHT22;24239;48.058;10.486;2023-08-08T04:41:21;11.50;99.90
38458;DHT22;24239;48.058;10.486;2023-08-08T04:43:47;11.50;99.90
38458;DHT22;24239;48.058;10.486;2023-08-08T04:46:13;11.60;99.90
38458;DHT22;24239;48.058;10.486;2023-08-08T04:48:39;11.60;99.90
38458;DHT22;24239;48.058;10.486;2023-08-08T04:51:05;11.60;99.90
38458;DHT22;24239;48.058;10.486;2023-08-08T04:53:31;11.60;99.90
38458;DHT22;24239;48.058;10.486;2023-08-08T04:55:57;11.70;99.90
38458;DHT22;24239;48.058;10.486;2023-08-08T04:58:23;11.90;99.90
38458;DHT22;24239;48.058;10.486;2023-08-08T05:00:49;11.90;99.90
38458;DHT22;24239;48.058;10.486;2023-08-08T05:03:16;12.10;99.90
38458;DHT22;24239;48.058;10.486;2023-08-08T05:05:43;12.20;99.90
38458;DHT22;24239;48.058;10.486;2023-08-08T05:08:14;12.20;99.90
38458;DHT22;24239;48.058;10.486;2023-08-08T05:10:40;12.30;99.90
38458;DHT22;24239;48.058;10.486;2023-08-08T05:13:06;12.40;99.90
38458;DHT22;24239;48.058;10.486;2023-08-08T05:15:32;12.50;99.90
38458;DHT22;24239;48.058;10.486;2023-08-08T05:17:57;12.70;99.90
38458;DHT22;24239;48.058;10.486;2023-08-08T05:20:25;12.90;99.90
38458;DHT22;24239;48.058;10.486;2023-08-08T05:22:51;13.00;99.90
38458;DHT22;24239;48.058;10.486;2023-08-08T05:25:17;13.00;99.90
38458;DHT22;24239;48.058;10.486;2023-08-08T05:27:43;12.90;99.90
38458;DHT22;24239;48.058;10.486;2023-08-08T05:30:09;13.00;99.90
38458;DHT22;24239;48.058;10.486;2023-08-08T05:32:35;13.10;99.90
38458;DHT22;24239;48.058;10.486;2023-08-08T05:35:01;13.20;99.90
38458;DHT22;24239;48.058;10.486;2023-08-08T05:37:29;13.10;99.90
38458;DHT22;24239;48.058;10.486;2023-08-08T05:39:55;13.20;99.90
38458;DHT22;24239;48.058;10.486;2023-08-08T05:42:21;13.50;99.90
38458;DHT22;24239;48.058;10.486;2023-08-08T05:44:46;14.40;99.90
38458;DHT22;24239;48.058;10.486;2023-08-08T05:47:12;15.40;99.90
38458;DHT22;24239;48.058;10.486;2023-08-08T05:49:39;16.30;99.90
38458;DHT22;24239;48.058;10.486;2023-08-08T05:52:08;17.10;99.90
38458;DHT22;24239;48.058;10.486;2023-08-08T05:54:34;17.70;99.90
38458;DHT22;24239;48.058;10.486;2023-08-08T05:57:01;17.80;99.90
38458;DHT22;24239;48.058;10.486;2023-08-08T05:59:27;17.20;99.90
38458;DHT22;24239;48.058;10.486;2023-08-08T06:01:53;16.80;99.90
38458;DHT22;24239;48.058;10.486;2023-08-08T06:04:18;16.60;99.90
38458;DHT22;24239;48.058;10.486;2023-08-08T06:06:44;16.50;99.90
38458;DHT22;24239;48.058;10.486;2023-08-08T06:09:10;16.10;99.90
38458;DHT22;24239;48.058;10.486;2023-08-08T06:11:36;15.90;99.90
38458;DHT22;24239;48.058;10.486;2023-08-08T06:14:01;15.50;99.90
38458;DHT22;24239;48.058;10.486;2023-08-08T06:16:28;15.20;99.90
38458;DHT22;24239;48.058;10.486;2023-08-08T06:18:53;15.10;99.90
38458;DHT22;24239;48.058;10.486;2023-08-08T06:21:19;15.10;99.90
38458;DHT22;24239;48.058;10.486;2023-08-08T06:23:45;15.10;99.90
38458;DHT22;24239;48.058;10.486;2023-08-08T06:26:12;15.20;99.90
38458;DHT22;24239;48.058;10.486;2023-08-08T06:28:38;15.20;99.90
38458;DHT22;24239;48.058;10.486;2023-08-08T06:31:04;15.30;99.90
38458;DHT22;24239;48.058;10.486;2023-08-08T06:33:29;15.10;99.90
38458;DHT22;24239;48.058;10.486;2023-08-08T06:35:56;15.00;99.90
38458;DHT22;24239;48.058;10.486;2023-08-08T06:38:21;15.00;99.90
38458;DHT22;24239;48.058;10.486;2023-08-08T06:40:47;15.00;99.90
38458;DHT22;24239;48.058;10.486;2023-08-08T06:43:13;14.90;99.90
38458;DHT22;24239;48.058;10.486;2023-08-08T06:45:39;14.90;99.90
38458;DHT22;24239;48.058;10.486;2023-08-08T06:48:05;14.90;99.90
38458;DHT22;24239;48.058;10.486;2023-08-08T06:50:31;14.90;99.90
38458;DHT22;24239;48.058;10.486;2023-08-08T06:52:57;14.90;99.90
38458;DHT22;24239;48.058;10.486;2023-08-08T06:55:22;14.80;99.90
38458;DHT22;24239;48.058;10.486;2023-08-08T06:57:48;14.80;99.90
38458;DHT22;24239;48.058;10.486;2023-08-08T07:00:17;14.70;99.90
38458;DHT22;24239;48.058;10.486;2023-08-08T07:02:43;14.70;99.90
38458;DHT22;24239;48.058;10.486;2023-08-08T07:05:09;14.60;99.90
38458;DHT22;24239;48.058;10.486;2023-08-08T07:07:36;14.70;99.90
38458;DHT22;24239;48.058;10.486;2023-08-08T07:10:03;14.70;99.90
38458;DHT22;24239;48.058;10.486;2023-08-08T07:12:31;14.80;99.90
38458;DHT22;24239;48.058;10.486;2023-08-08T07:14:57;14.80;99.90
38458;DHT22;24239;48.058;10.486;2023-08-08T07:17:23;14.90;99.90
38458;DHT22;24239;48.058;10.486;2023-08-08T07:19:49;14.90;99.90
38458;DHT22;24239;48.058;10.486;2023-08-08T07:22:14;14.90;99.90
38458;DHT22;24239;48.058;10.486;2023-08-08T07:24:40;15.00;99.90
38458;DHT22;24239;48.058;10.486;2023-08-08T07:27:06;15.10;99.90
38458;DHT22;24239;48.058;10.486;2023-08-08T07:29:32;15.20;99.90
38458;DHT22;24239;48.058;10.486;2023-08-08T07:31:58;15.20;99.90
38458;DHT22;24239;48.058;10.486;2023-08-08T07:34:24;15.20;99.90
38458;DHT22;24239;48.058;10.486;2023-08-08T07:36:50;15.20;99.90
38458;DHT22;24239;48.058;10.486;2023-08-08T07:39:16;15.30;99.90
38458;DHT22;24239;48.058;10.486;2023-08-08T07:41:42;15.30;99.90
38458;DHT22;24239;48.058;10.486;2023-08-08T07:44:08;15.30;99.90
38458;DHT22;24239;48.058;10.486;2023-08-08T07:46:33;15.50;99.90
38458;DHT22;24239;48.058;10.486;2023-08-08T07:48:59;15.40;99.90
38458;DHT22;24239;48.058;10.486;2023-08-08T07:51:29;15.40;99.90
38458;DHT22;24239;48.058;10.486;2023-08-08T07:53:55;15.40;99.90
38458;DHT22;24239;48.058;10.486;2023-08-08T07:56:21;15.40;99.90
38458;DHT22;24239;48.058;10.486;2023-08-08T07:58:46;15.50;99.90
38458;DHT22;24239;48.058;10.486;2023-08-08T08:01:12;15.60;99.90
38458;DHT22;24239;48.058;10.486;2023-08-08T08:03:39;15.60;99.90
38458;DHT22;24239;48.058;10.486;2023-08-08T08:06:06;15.60;99.90
38458;DHT22;24239;48.058;10.486;2023-08-08T08:08:32;15.70;99.90
38458;DHT22;24239;48.058;10.486;2023-08-08T08:10:58;15.70;99.90
38458;DHT22;24239;48.058;10.486;2023-08-08T08:13:24;15.80;99.90
38458;DHT22;24239;48.058;10.486;2023-08-08T08:15:49;15.90;99.90
38458;DHT22;24239;48.058;10.486;2023-08-08T08:18:15;16.10;99.90
38458;DHT22;24239;48.058;10.486;2023-08-08T08:20:43;16.10;99.90
38458;DHT22;24239;48.058;10.486;2023-08-08T08:23:10;16.10;99.90
38458;DHT22;24239;48.058;10.486;2023-08-08T08:25:35;16.10;99.90
38458;DHT22;24239;48.058;10.486;2023-08-08T08:28:01;16.10;99.90
38458;DHT22;24239;48.058;10.486;2023-08-08T08:30:27;16.10;99.90
38458;DHT22;24239;48.058;10.486;2023-08-08T08:32:55;16.20;99.90
38458;DHT22;24239;48.058;10.486;2023-08-08T08:35:22;16.20;99.90
38458;DHT22;24239;48.058;10.486;2023-08-08T08:37:48;16.30;99.90
38458;DHT22;24239;48.058;10.486;2023-08-08T08:40:14;16.40;99.90
38458;DHT22;24239;48.058;10.486;2023-08-08T08:42:40;16.30;99.90
38458;DHT22;24239;48.058;10.486;2023-08-08T08:45:15;16.40;99.90
38458;DHT22;24239;48.058;10.486;2023-08-08T08:47:46;16.30;99.90
38458;DHT22;24239;48.058;10.486;2023-08-08T08:50:18;16.40;99.90
38458;DHT22;24239;48.058;10.486;2023-08-08T08:52:44;16.40;99.90
38458;DHT22;24239;48.058;10.486;2023-08-08T08:55:10;16.50;99.90
38458;DHT22;24239;48.058;10.486;2023-08-08T08:57:42;16.40;99.90
38458;DHT22;24239;48.058;10.486;2023-08-08T09:00:11;16.60;99.90
38458;DHT22;24239;48.058;10.486;2023-08-08T09:02:37;16.70;99.90
38458;DHT22;24239;48.058;10.486;2023-08-08T09:05:06;16.90;99.90
38458;DHT22;24239;48.058;10.486;2023-08-08T09:07:34;17.00;99.90
38458;DHT22;24239;48.058;10.486;2023-08-08T09:10:01;17.20;99.90
38458;DHT22;24239;48.058;10.486;2023-08-08T09:12:27;17.30;99.90
38458;DHT22;24239;48.058;10.486;2023-08-08T09:14:56;17.50;99.90
38458;DHT22;24239;48.058;10.486;2023-08-08T09:17:25;17.60;99.90
38458;DHT22;24239;48.058;10.486;2023-08-08T09:19:54;17.70;99.90
38458;DHT22;24239;48.058;10.486;2023-08-08T09:22:24;17.70;99.90
38458;DHT22;24239;48.058;10.486;2023-08-08T09:24:50;18.00;99.90
38458;DHT22;24239;48.058;10.486;2023-08-08T09:27:16;18.00;99.90
38458;DHT22;24239;48.058;10.486;2023-08-08T09:29:42;18.00;99.90
38458;DHT22;24239;48.058;10.486;2023-08-08T09:32:08;18.10;99.90
38458;DHT22;24239;48.058;10.486;2023-08-08T09:34:35;18.20;99.90
38458;DHT22;24239;48.058;10.486;2023-08-08T09:37:01;18.30;99.90
38458;DHT22;24239;48.058;10.486;2023-08-08T09:39:28;18.30;99.90
38458;DHT22;24239;48.058;10.486;2023-08-08T09:41:55;18.50;99.90
38458;DHT22;24239;48.058;10.486;2023-08-08T09:44:26;18.70;99.90
38458;DHT22;24239;48.058;10.486;2023-08-08T09:46:53;18.90;99.90
38458;DHT22;24239;48.058;10.486;2023-08-08T09:49:21;19.10;99.90
38458;DHT22;24239;48.058;10.486;2023-08-08T09:51:48;18.90;99.90
38458;DHT22;24239;48.058;10.486;2023-08-08T09:54:15;18.90;99.90
38458;DHT22;24239;48.058;10.486;2023-08-08T09:56:42;19.00;99.90
38458;DHT22;24239;48.058;10.486;2023-08-08T09:59:09;19.20;99.90
38458;DHT22;24239;48.058;10.486;2023-08-08T10:01:40;19.30;99.90
38458;DHT22;24239;48.058;10.486;2023-08-08T10:04:06;19.20;99.90
38458;DHT22;24239;48.058;10.486;2023-08-08T10:06:32;19.20;99.90
38458;DHT22;24239;48.058;10.486;2023-08-08T10:08:59;19.30;99.90
38458;DHT22;24239;48.058;10.486;2023-08-08T10:11:25;19.40;99.90
38458;DHT22;24239;48.058;10.486;2023-08-08T10:13:53;19.50;99.90
38458;DHT22;24239;48.058;10.486;2023-08-08T10:16:19;19.40;99.00
38458;DHT22;24239;48.058;10.486;2023-08-08T10:19:02;19.40;99.90
38458;DHT22;24239;48.058;10.486;2023-08-08T10:21:33;19.20;98.70
38458;DHT22;24239;48.058;10.486;2023-08-08T10:24:07;19.20;99.40
38458;DHT22;24239;48.058;10.486;2023-08-08T10:26:50;19.20;98.40
38458;DHT22;24239;48.058;10.486;2023-08-08T10:29:18;19.00;98.80
38458;DHT22;24239;48.058;10.486;2023-08-08T10:32:00;19.00;99.10
38458;DHT22;24239;48.058;10.486;2023-08-08T10:34:27;19.10;99.90
38458;DHT22;24239;48.058;10.486;2023-08-08T10:37:04;19.20;98.20
38458;DHT22;24239;48.058;10.486;2023-08-08T10:39:30;19.20;99.30
38458;DHT22;24239;48.058;10.486;2023-08-08T10:42:01;19.30;99.90
38458;DHT22;24239;48.058;10.486;2023-08-08T10:44:28;19.40;99.10
38458;DHT22;24239;48.058;10.486;2023-08-08T10:46:54;19.60;99.60
38458;DHT22;24239;48.058;10.486;2023-08-08T10:49:21;19.70;97.60
38458;DHT22;24239;48.058;10.486;2023-08-08T10:51:48;19.70;98.40
38458;DHT22;24239;48.058;10.486;2023-08-08T10:54:16;19.70;98.20
38458;DHT22;24239;48.058;10.486;2023-08-08T10:56:57;19.50;97.20
38458;DHT22;24239;48.058;10.486;2023-08-08T11:01:51;19.50;97.50
38458;DHT22;24239;48.058;10.486;2023-08-08T11:04:24;19.40;95.70
38458;DHT22;24239;48.058;10.486;2023-08-08T11:06:53;19.40;97.50
38458;DHT22;24239;48.058;10.486;2023-08-08T11:09:20;19.40;96.40
38458;DHT22;24239;48.058;10.486;2023-08-08T11:11:46;19.60;96.30
38458;DHT22;24239;48.058;10.486;2023-08-08T11:14:13;19.70;95.90
38458;DHT22;24239;48.058;10.486;2023-08-08T11:16:40;19.80;96.90
38458;DHT22;24239;48.058;10.486;2023-08-08T11:19:07;19.90;95.60
38458;DHT22;24239;48.058;10.486;2023-08-08T11:21:34;20.00;95.50
38458;DHT22;24239;48.058;10.486;2023-08-08T11:24:01;20.00;96.20
38458;DHT22;24239;48.058;10.486;2023-08-08T11:26:27;19.90;95.40
38458;DHT22;24239;48.058;10.486;2023-08-08T11:28:58;19.90;96.80
38458;DHT22;24239;48.058;10.486;2023-08-08T11:31:24;19.90;95.40
38458;DHT22;24239;48.058;10.486;2023-08-08T11:33:50;19.70;95.80
38458;DHT22;24239;48.058;10.486;2023-08-08T11:36:18;19.70;96.30
38458;DHT22;24239;48.058;10.486;2023-08-08T11:38:51;19.80;97.80
38458;DHT22;24239;48.058;10.486;2023-08-08T11:41:21;19.80;97.90
38458;DHT22;24239;48.058;10.486;2023-08-08T11:43:48;19.90;98.10
38458;DHT22;24239;48.058;10.486;2023-08-08T11:46:25;20.00;97.90
38458;DHT22;24239;48.058;10.486;2023-08-08T11:48:51;20.20;98.40
38458;DHT22;24239;48.058;10.486;2023-08-08T11:51:17;20.20;98.20
38458;DHT22;24239;48.058;10.486;2023-08-08T11:53:51;20.30;96.90
38458;DHT22;24239;48.058;10.486;2023-08-08T11:56:21;20.20;96.20
38458;DHT22;24239;48.058;10.486;2023-08-08T11:58:50;20.20;96.10
38458;DHT22;24239;48.058;10.486;2023-08-08T12:01:20;20.10;95.40
38458;DHT22;24239;48.058;10.486;2023-08-08T12:03:46;20.00;96.60
38458;DHT22;24239;48.058;10.486;2023-08-08T12:06:15;20.10;95.40
38458;DHT22;24239;48.058;10.486;2023-08-08T12:08:45;20.30;97.40
38458;DHT22;24239;48.058;10.486;2023-08-08T12:11:13;20.30;96.40
38458;DHT22;24239;48.058;10.486;2023-08-08T12:13:41;20.40;96.60
38458;DHT22;24239;48.058;10.486;2023-08-08T12:16:09;20.40;95.60
38458;DHT22;24239;48.058;10.486;2023-08-08T12:18:36;20.40;95.50
38458;DHT22;24239;48.058;10.486;2023-08-08T12:21:06;20.40;96.80
38458;DHT22;24239;48.058;10.486;2023-08-08T12:23:33;20.40;96.10
38458;DHT22;24239;48.058;10.486;2023-08-08T12:25:59;20.40;95.80
38458;DHT22;24239;48.058;10.486;2023-08-08T12:28:25;20.50;96.00
38458;DHT22;24239;48.058;10.486;2023-08-08T12:30:51;20.50;95.60
38458;DHT22;24239;48.058;10.486;2023-08-08T12:33:17;20.40;95.40
38458;DHT22;24239;48.058;10.486;2023-08-08T12:35:43;20.40;95.20
38458;DHT22;24239;48.058;10.486;2023-08-08T12:38:09;20.40;95.40
38458;DHT22;24239;48.058;10.486;2023-08-08T12:40:36;20.40;94.80
38458;DHT22;24239;48.058;10.486;2023-08-08T12:43:02;20.50;95.20
38458;DHT22;24239;48.058;10.486;2023-08-08T12:45:28;20.50;95.20
38458;DHT22;24239;48.058;10.486;2023-08-08T12:47:54;20.50;94.60
38458;DHT22;24239;48.058;10.486;2023-08-08T12:50:19;20.50;94.90
38458;DHT22;24239;48.058;10.486;2023-08-08T12:52:45;20.50;94.60
38458;DHT22;24239;48.058;10.486;2023-08-08T12:55:11;20.50;94.30
38458;DHT22;24239;48.058;10.486;2023-08-08T12:57:42;20.50;94.70
38458;DHT22;24239;48.058;10.486;2023-08-08T13:00:08;20.60;96.00
38458;DHT22;24239;48.058;10.486;2023-08-08T13:02:34;20.60;94.20
38458;DHT22;24239;48.058;10.486;2023-08-08T13:05:00;20.60;93.90
38458;DHT22;24239;48.058;10.486;2023-08-08T13:07:26;20.60;93.90
38458;DHT22;24239;48.058;10.486;2023-08-08T13:09:52;20.60;94.00
38458;DHT22;24239;48.058;10.486;2023-08-08T13:12:17;20.60;95.40
38458;DHT22;24239;48.058;10.486;2023-08-08T13:14:43;20.60;93.40
38458;DHT22;24239;48.058;10.486;2023-08-08T13:17:09;20.60;96.00
38458;DHT22;24239;48.058;10.486;2023-08-08T13:19:35;20.70;94.70
38458;DHT22;24239;48.058;10.486;2023-08-08T13:22:01;20.80;94.70
38458;DHT22;24239;48.058;10.486;2023-08-08T13:24:28;20.80;93.90
38458;DHT22;24239;48.058;10.486;2023-08-08T13:26:54;20.60;94.60
38458;DHT22;24239;48.058;10.486;2023-08-08T13:29:23;20.70;95.40
38458;DHT22;24239;48.058;10.486;2023-08-08T13:31:48;21.00;94.30
38458;DHT22;24239;48.058;10.486;2023-08-08T13:34:14;21.10;93.70
38458;DHT22;24239;48.058;10.486;2023-08-08T13:36:40;21.10;94.20
38458;DHT22;24239;48.058;10.486;2023-08-08T13:39:07;21.10;94.00
38458;DHT22;24239;48.058;10.486;2023-08-08T13:41:35;21.10;93.90
38458;DHT22;24239;48.058;10.486;2023-08-08T13:44:00;21.20;93.70
38458;DHT22;24239;48.058;10.486;2023-08-08T13:46:26;21.30;93.40
38458;DHT22;24239;48.058;10.486;2023-08-08T13:48:52;21.60;94.60
38458;DHT22;24239;48.058;10.486;2023-08-08T13:51:18;21.90;92.80
38458;DHT22;24239;48.058;10.486;2023-08-08T13:53:43;21.90;93.40
38458;DHT22;24239;48.058;10.486;2023-08-08T13:56:10;22.10;93.50
38458;DHT22;24239;48.058;10.486;2023-08-08T13:58:36;22.10;94.30
38458;DHT22;24239;48.058;10.486;2023-08-08T14:01:02;22.20;94.70
38458;DHT22;24239;48.058;10.486;2023-08-08T14:03:28;22.30;92.40
38458;DHT22;24239;48.058;10.486;2023-08-08T14:05:54;22.20;92.00
38458;DHT22;24239;48.058;10.486;2023-08-08T14:08:20;21.90;92.60
38458;DHT22;24239;48.058;10.486;2023-08-08T14:10:46;21.90;93.90
38458;DHT22;24239;48.058;10.486;2023-08-08T14:13:12;21.90;94.30
38458;DHT22;24239;48.058;10.486;2023-08-08T14:15:38;21.90;92.90
38458;DHT22;24239;48.058;10.486;2023-08-08T14:18:04;21.90;93.10
38458;DHT22;24239;48.058;10.486;2023-08-08T14:20:30;22.00;92.70
38458;DHT22;24239;48.058;10.486;2023-08-08T14:22:55;22.00;94.10
38458;DHT22;24239;48.058;10.486;2023-08-08T14:25:22;22.10;92.80
38458;DHT22;24239;48.058;10.486;2023-08-08T14:27:48;22.20;93.10
38458;DHT22;24239;48.058;10.486;2023-08-08T14:30:14;22.10;93.50
38458;DHT22;24239;48.058;10.486;2023-08-08T14:32:40;22.10;94.20
38458;DHT22;24239;48.058;10.486;2023-08-08T14:35:06;22.20;93.60
38458;DHT22;24239;48.058;10.486;2023-08-08T14:37:34;22.40;93.80
38458;DHT22;24239;48.058;10.486;2023-08-08T14:40:00;22.40;93.60
38458;DHT22;24239;48.058;10.486;2023-08-08T14:42:26;22.40;92.30
38458;DHT22;24239;48.058;10.486;2023-08-08T14:44:52;22.10;93.30
38458;DHT22;24239;48.058;10.486;2023-08-08T14:47:18;22.10;93.10
38458;DHT22;24239;48.058;10.486;2023-08-08T14:49:44;22.00;93.10
38458;DHT22;24239;48.058;10.486;2023-08-08T14:52:09;21.80;93.60
38458;DHT22;24239;48.058;10.486;2023-08-08T14:54:36;21.80;93.30
38458;DHT22;24239;48.058;10.486;2023-08-08T14:57:02;21.50;93.70
38458;DHT22;24239;48.058;10.486;2023-08-08T14:59:28;21.60;93.80
38458;DHT22;24239;48.058;10.486;2023-08-08T15:01:54;21.80;94.30
38458;DHT22;24239;48.058;10.486;2023-08-08T15:04:20;21.90;93.60
38458;DHT22;24239;48.058;10.486;2023-08-08T15:06:45;22.00;93.90
38458;DHT22;24239;48.058;10.486;2023-08-08T15:09:12;22.00;93.20
38458;DHT22;24239;48.058;10.486;2023-08-08T15:11:38;22.00;93.70
38458;DHT22;24239;48.058;10.486;2023-08-08T15:14:04;21.90;93.20